createdAt,value
2019-06-10T00:02:47.705Z,20.4
2019-06-10T00:12:46.992Z,20.4
2019-06-10T00:22:46.164Z,20.4
2019-06-10T00:32:45.396Z,20.3
2019-06-10T00:42:44.627Z,20.1
2019-06-10T00:52:45.350Z,19.9
2019-06-10T01:02:43.098Z,19.9
2019-06-10T01:12:42.329Z,19.8
2019-06-10T01:22:41.562Z,19.7
2019-06-10T01:32:41.792Z,19.6
2019-06-10T01:42:41.380Z,19.6
2019-06-10T01:52:41.085Z,19.6
2019-06-10T02:02:44.000Z,19.6
2019-06-10T02:12:38.716Z,19.6
2019-06-10T02:22:37.947Z,19.4
2019-06-10T02:32:38.086Z,19.3
2019-06-10T02:42:36.422Z,19.3
2019-06-10T02:52:38.291Z,19.3
2019-06-10T03:02:36.302Z,19.3
2019-06-10T03:12:34.104Z,19.3
2019-06-10T03:22:33.335Z,19.4
2019-06-10T03:32:40.251Z,19.8
2019-06-10T03:42:32.462Z,20.4
2019-06-10T03:52:32.425Z,20.9
2019-06-10T04:02:32.546Z,21.4
2019-06-10T04:12:29.501Z,22
2019-06-10T04:22:28.735Z,22.6
2019-06-10T04:32:29.095Z,23.2
2019-06-10T04:42:27.384Z,23.8
2019-06-10T04:52:28.006Z,24.3
2019-06-10T05:02:27.163Z,24.8
2019-06-10T05:12:25.279Z,25.1
2019-06-10T05:22:25.428Z,25.8
2019-06-10T05:32:25.855Z,26.3
2019-06-10T05:42:24.269Z,26.8
2019-06-10T05:52:23.326Z,27.2
2019-06-10T06:02:22.256Z,27.6
2019-06-10T06:12:22.544Z,28.1
2019-06-10T06:22:21.965Z,28.6
2019-06-10T06:32:18.751Z,29.1
2019-06-10T06:42:17.981Z,28.8
2019-06-10T06:52:17.219Z,27.4
2019-06-10T07:02:16.450Z,27.4
2019-06-10T07:12:15.682Z,27.5
2019-06-10T07:22:16.211Z,27.1
2019-06-10T07:32:14.141Z,26.6
2019-06-10T07:42:13.638Z,26
2019-06-10T07:52:18.764Z,25.6
2019-06-10T08:02:12.369Z,25.5
2019-06-10T08:12:12.701Z,26.9
2019-06-10T08:22:10.299Z,26.8
2019-06-10T08:32:09.533Z,27.1
2019-06-10T08:42:08.759Z,28.3
2019-06-10T08:52:07.991Z,29
2019-06-10T09:02:07.226Z,29.7
2019-06-10T09:12:06.457Z,29.3
2019-06-10T09:22:05.680Z,28.7
2019-06-10T09:32:04.911Z,27.8
2019-06-10T09:42:06.432Z,27.4
2019-06-10T09:52:03.646Z,26.6
2019-06-10T10:02:05.608Z,26.4
2019-06-10T10:12:02.988Z,26.3
2019-06-10T10:22:02.958Z,24.3
2019-06-10T10:32:02.508Z,22.8
2019-06-10T10:41:59.534Z,23.7
2019-06-10T10:51:58.768Z,24.8
2019-06-10T11:01:58.010Z,25
2019-06-10T11:11:57.419Z,25.1
2019-06-10T11:21:57.803Z,25.3
2019-06-10T11:31:58.240Z,24.9
2019-06-10T11:41:56.357Z,25.4
2019-06-10T11:51:55.990Z,25.4
2019-06-10T12:01:56.759Z,25.4
2019-06-10T12:11:55.036Z,25.8
2019-06-10T12:21:55.564Z,24.3
2019-06-10T12:31:54.038Z,24
2019-06-10T12:41:53.080Z,24.3
2019-06-10T12:51:49.559Z,24.6
2019-06-10T13:01:48.795Z,24.6
2019-06-10T13:11:48.025Z,24.8
2019-06-10T13:21:47.252Z,25.2
2019-06-10T13:31:46.487Z,25.4
2019-06-10T13:41:45.766Z,25.2
2019-06-10T13:51:44.949Z,24.5
2019-06-10T14:01:45.073Z,24
2019-06-10T14:11:43.413Z,23.2
2019-06-10T14:21:42.661Z,22.6
2019-06-10T14:31:44.897Z,22.6
2019-06-10T14:41:43.001Z,22.7
2019-06-10T14:51:42.925Z,22.6
2019-06-10T15:01:39.576Z,22.6
2019-06-10T15:11:38.815Z,22.8
2019-06-10T15:21:38.090Z,22.8
2019-06-10T15:31:37.272Z,22.8
2019-06-10T15:41:36.505Z,22.9
2019-06-10T15:51:35.747Z,23
2019-06-10T16:01:34.982Z,22.8
2019-06-10T16:11:34.214Z,22.8
2019-06-10T16:21:33.449Z,22.8
2019-06-10T16:31:32.678Z,22.9
2019-06-10T16:41:32.351Z,22.9
2019-06-10T16:51:31.154Z,22.9
2019-06-10T17:01:33.038Z,22.8
2019-06-10T17:11:30.482Z,22.6
2019-06-10T17:21:31.649Z,22.3
2019-06-10T17:31:30.792Z,22.1
2019-06-10T17:41:29.260Z,21.9
2019-06-10T17:51:28.090Z,21.8
2019-06-10T18:01:27.052Z,21.7
2019-06-10T18:11:26.385Z,21.7
2019-06-10T18:21:24.377Z,21.5
2019-06-10T18:31:23.611Z,21.3
2019-06-10T18:41:22.737Z,21.2
2019-06-10T18:51:22.927Z,21.1
2019-06-10T19:01:22.624Z,20.9
2019-06-10T19:11:20.442Z,20.8
2019-06-10T19:21:19.683Z,20.7
2019-06-10T19:31:18.914Z,20.5
2019-06-10T19:41:18.144Z,20.5
2019-06-10T19:51:17.385Z,20.6
2019-06-10T20:01:16.623Z,20.5
2019-06-10T20:11:15.858Z,20.5
2019-06-10T20:21:15.094Z,20.1
2019-06-10T20:31:14.323Z,20.1
2019-06-10T20:41:13.566Z,20.4
2019-06-10T20:51:12.961Z,20.3
2019-06-10T21:01:12.039Z,20.2
2019-06-10T21:13:03.109Z,20.1
2019-06-10T21:23:03.006Z,19.9
2019-06-10T21:33:03.424Z,19.6
2019-06-10T21:43:02.774Z,19.6
2019-06-10T21:52:59.852Z,19.4
2019-06-10T22:02:59.090Z,19.4
2019-06-10T22:12:58.346Z,19.3
2019-06-10T22:22:57.667Z,19.2
2019-06-10T22:32:57.946Z,19.1
2019-06-10T22:42:56.742Z,18.9
2019-06-10T22:52:57.380Z,18.9
2019-06-10T23:02:56.427Z,18.8
2019-06-10T23:12:56.254Z,18.6
2019-06-10T23:22:55.931Z,18.5
2019-06-10T23:32:54.712Z,18.3
2019-06-10T23:42:53.071Z,18.3
2019-06-10T23:52:53.834Z,18.3
